Terminal Aerodrome Forecast
Issued by NWS

Home | Current Version | Previous Version | Text Only | Print | Product List | Glossary Off
Versions: 1 2 3 4 5 6 7 8 9 10 11 12 13 14 15 16 17 18 19

000
FTUS43 KBIS 192334
TAFDIK
TAF
KDIK 192334Z 2000/2024 31008KT P6SM VCSH SCT035 OVC080
     FM200200 35007KT P6SM VCSH BKN070
     FM200600 08005KT P6SM VCSH OVC070
     FM201000 12005KT P6SM OVC035
     FM201300 15006KT P6SM OVC025
     FM201800 17006KT P6SM OVC035=

USA.gov is the U.S. government's official web portal to all federal, state and local government web resources and services.